Time;durP1;ratioP1;P1;durP2;ratioP2;P2;SDS_P1;SDS_P2;PMS_P1;PMS_P2;Temp;Humidity;BMP_temperature;BMP_pressure;BME280_temperature;BME280_humidity;BME280_pressure;Samples;Min_cycle;Max_cycle;Signal;HPM_P1;HPM_P2
2021/09/28 00:01:23;;;;;;;17.65;6.97;;;;;;;;;;7363716;19;162227;-13
2021/09/28 00:03:51;;;;;;;18.58;5.75;;;;;;;;;;7363346;19;153962;-14
2021/09/28 00:06:19;;;;;;;17.08;6.32;;;;;;;;;;7364395;19;153797;-12
2021/09/28 00:08:47;;;;;;;21.23;6.35;;;;;;;;;;7363447;19;161917;-14
2021/09/28 00:11:15;;;;;;;14.75;6.40;;;;;;;;;;7363838;19;162464;-14
2021/09/28 00:13:43;;;;;;;16.33;5.75;;;;;;;;;;7364222;19;153929;-14
2021/09/28 00:16:11;;;;;;;12.70;5.70;;;;;;;;;;7362900;19;153708;-13
2021/09/28 00:18:39;;;;;;;14.18;5.93;;;;;;;;;;7363668;19;162077;-13
2021/09/28 00:21:06;;;;;;;14.18;6.20;;;;;;;;;;7362398;19;162511;-13
2021/09/28 00:23:34;;;;;;;13.57;5.72;;;;;;;;;;7361854;19;154082;-14
2021/09/28 00:26:02;;;;;;;16.50;6.82;;;;;;;;;;7362820;19;153572;-12
2021/09/28 00:28:30;;;;;;;15.07;6.15;;;;;;;;;;7363367;19;161600;-14
2021/09/28 00:30:58;;;;;;;16.65;5.88;;;;;;;;;;7363271;19;162409;-14
2021/09/28 00:33:27;;;;;;;14.35;5.25;;;;;;;;;;7362598;19;153722;-13
2021/09/28 00:35:56;;;;;;;18.30;5.93;;;;;;;;;;7363507;19;153653;-14
2021/09/28 00:38:24;;;;;;;16.17;7.13;;;;;;;;;;7363277;19;162005;-14
2021/09/28 00:40:52;;;;;;;17.25;6.50;;;;;;;;;;7362238;19;163238;-15
2021/09/28 00:43:20;;;;;;;11.82;6.07;;;;;;;;;;7361470;19;154335;-15
2021/09/28 00:45:48;;;;;;;14.00;5.72;;;;;;;;;;7362034;19;153590;-14
2021/09/28 00:48:16;;;;;;;11.13;5.25;;;;;;;;;;7362823;19;161834;-15
2021/09/28 00:50:44;;;;;;;11.75;5.63;;;;;;;;;;7362792;19;162348;-13
2021/09/28 00:53:11;;;;;;;12.02;5.07;;;;;;;;;;7353585;19;154119;-15
2021/09/28 00:55:40;;;;;;;10.73;5.35;;;;;;;;;;7334529;19;153853;-13
2021/09/28 00:58:08;;;;;;;7.90;4.70;;;;;;;;;;7333684;19;162026;-15
2021/09/28 01:00:37;;;;;;;11.18;5.72;;;;;;;;;;7333729;19;162453;-12
2021/09/28 01:03:07;;;;;;;12.50;5.32;;;;;;;;;;7332573;19;154093;-13
2021/09/28 01:05:35;;;;;;;16.05;6.05;;;;;;;;;;7333724;19;153848;-14
2021/09/28 01:08:03;;;;;;;15.00;5.85;;;;;;;;;;7332293;19;161974;-15
2021/09/28 01:10:31;;;;;;;10.60;4.85;;;;;;;;;;7333634;19;162459;-22
2021/09/28 01:12:59;;;;;;;9.20;5.07;;;;;;;;;;7333748;19;153952;-14
2021/09/28 01:15:27;;;;;;;9.93;5.47;;;;;;;;;;7333840;19;153609;-15
2021/09/28 01:17:55;;;;;;;13.90;5.28;;;;;;;;;;7332032;19;162184;-14
2021/09/28 01:20:22;;;;;;;13.98;5.47;;;;;;;;;;7333050;19;162547;-13
2021/09/28 01:22:50;;;;;;;13.32;5.50;;;;;;;;;;7332565;19;154189;-14
2021/09/28 01:25:18;;;;;;;13.65;5.75;;;;;;;;;;7333735;19;153605;-15
2021/09/28 01:27:46;;;;;;;13.00;5.30;;;;;;;;;;7331842;19;162120;-15
2021/09/28 01:30:14;;;;;;;12.55;5.30;;;;;;;;;;7333403;19;162317;-13
2021/09/28 01:32:42;;;;;;;10.88;5.13;;;;;;;;;;7333667;19;153937;-15
2021/09/28 01:35:10;;;;;;;11.68;5.55;;;;;;;;;;7333353;19;154007;-15
2021/09/28 01:37:38;;;;;;;14.32;4.90;;;;;;;;;;7332818;19;161820;-13
2021/09/28 01:40:06;;;;;;;11.95;5.28;;;;;;;;;;7332797;19;162423;-14
2021/09/28 01:42:34;;;;;;;11.80;5.03;;;;;;;;;;7332145;19;154255;-14
2021/09/28 01:45:03;;;;;;;11.85;5.07;;;;;;;;;;7333126;19;153676;-16
2021/09/28 01:47:33;;;;;;;10.57;5.45;;;;;;;;;;7332698;19;161896;-13
2021/09/28 01:50:00;;;;;;;13.77;5.18;;;;;;;;;;7331389;19;162439;-12
2021/09/28 01:52:29;;;;;;;10.43;4.88;;;;;;;;;;7331640;19;154250;-13
2021/09/28 01:54:57;;;;;;;8.63;5.20;;;;;;;;;;7331472;19;153551;-14
2021/09/28 01:57:25;;;;;;;12.70;5.40;;;;;;;;;;7332172;19;161842;-13
2021/09/28 01:59:52;;;;;;;11.57;4.72;;;;;;;;;;7331879;19;162319;-15
2021/09/28 02:02:20;;;;;;;12.00;5.05;;;;;;;;;;7331900;19;153777;-12
2021/09/28 02:04:48;;;;;;;11.15;5.07;;;;;;;;;;7329730;19;153684;-13
2021/09/28 02:07:16;;;;;;;11.25;4.68;;;;;;;;;;7331347;19;161872;-13
2021/09/28 02:09:44;;;;;;;10.23;4.75;;;;;;;;;;7331781;19;162469;-13
2021/09/28 02:12:11;;;;;;;9.82;5.20;;;;;;;;;;7332316;19;154040;-15
2021/09/28 02:14:39;;;;;;;11.80;4.50;;;;;;;;;;7332352;19;153545;-15
2021/09/28 02:17:07;;;;;;;9.93;4.90;;;;;;;;;;7331897;19;161682;-14
2021/09/28 02:19:35;;;;;;;12.63;5.03;;;;;;;;;;7331765;19;162386;-13
2021/09/28 02:22:03;;;;;;;10.27;4.90;;;;;;;;;;7331963;19;154298;-16
2021/09/28 02:24:31;;;;;;;8.05;4.57;;;;;;;;;;7331985;19;153359;-12
2021/09/28 02:26:59;;;;;;;7.63;5.05;;;;;;;;;;7331358;19;161884;-13
2021/09/28 02:29:26;;;;;;;11.77;4.88;;;;;;;;;;7331555;19;162307;-13
2021/09/28 02:31:55;;;;;;;10.98;5.25;;;;;;;;;;7331862;19;153768;-14
2021/09/28 02:34:22;;;;;;;9.70;5.07;;;;;;;;;;7331471;19;153604;-13
2021/09/28 02:36:50;;;;;;;11.00;4.68;;;;;;;;;;7331240;19;162020;-14
2021/09/28 02:39:18;;;;;;;8.15;4.65;;;;;;;;;;7331183;19;162060;-14
2021/09/28 02:41:46;;;;;;;11.02;5.07;;;;;;;;;;7331386;19;154186;-14
2021/09/28 02:44:16;;;;;;;9.88;4.78;;;;;;;;;;7329122;19;153883;-13
2021/09/28 02:46:44;;;;;;;9.15;4.50;;;;;;;;;;7331050;19;162155;-13
2021/09/28 02:49:12;;;;;;;13.30;5.00;;;;;;;;;;7331009;19;162524;-14
2021/09/28 02:51:40;;;;;;;6.80;3.95;;;;;;;;;;7330213;19;154127;-15
2021/09/28 02:54:08;;;;;;;11.20;4.28;;;;;;;;;;7330715;19;153834;-13
2021/09/28 02:56:36;;;;;;;10.50;5.00;;;;;;;;;;7330402;19;161707;-12
2021/09/28 02:59:04;;;;;;;9.00;4.53;;;;;;;;;;7330527;19;162313;-12
2021/09/28 03:01:32;;;;;;;8.05;4.80;;;;;;;;;;7330568;19;153905;-13
2021/09/28 03:04:00;;;;;;;6.88;4.10;;;;;;;;;;7328887;19;153530;-13
2021/09/28 03:06:28;;;;;;;8.85;4.18;;;;;;;;;;7329256;19;162030;-13
2021/09/28 03:08:55;;;;;;;11.65;4.78;;;;;;;;;;7330628;19;162432;-12
2021/09/28 03:11:27;;;;;;;10.48;4.72;;;;;;;;;;7330706;19;154013;-13
2021/09/28 03:13:57;;;;;;;8.18;4.25;;;;;;;;;;7330571;19;153238;-14
2021/09/28 03:16:25;;;;;;;7.88;4.32;;;;;;;;;;7329289;19;161625;-15
2021/09/28 03:18:53;;;;;;;6.47;4.25;;;;;;;;;;7329973;19;162512;-16
2021/09/28 03:21:21;;;;;;;11.20;4.78;;;;;;;;;;7329230;19;154005;-15
2021/09/28 03:23:48;;;;;;;7.88;4.45;;;;;;;;;;7328518;19;153598;-14
2021/09/28 03:26:16;;;;;;;9.00;4.40;;;;;;;;;;7329670;19;161831;-12
2021/09/28 03:28:44;;;;;;;10.10;4.20;;;;;;;;;;7329903;19;162417;-13
2021/09/28 03:31:12;;;;;;;10.00;5.03;;;;;;;;;;7330188;19;154026;-13
2021/09/28 03:33:40;;;;;;;8.95;4.22;;;;;;;;;;7329803;19;153632;-13
2021/09/28 03:36:08;;;;;;;7.68;4.18;;;;;;;;;;7329576;19;161847;-13
2021/09/28 03:38:36;;;;;;;10.65;4.28;;;;;;;;;;7329565;19;162220;-14
2021/09/28 03:41:04;;;;;;;8.70;4.32;;;;;;;;;;7329872;19;153938;-13
2021/09/28 03:43:32;;;;;;;8.60;4.38;;;;;;;;;;7328506;19;153538;-14
2021/09/28 03:45:59;;;;;;;10.02;4.30;;;;;;;;;;7328743;19;161929;-14
2021/09/28 03:48:27;;;;;;;8.00;4.05;;;;;;;;;;7328985;19;162343;-13
2021/09/28 03:50:55;;;;;;;11.63;4.60;;;;;;;;;;7329242;19;154368;-15
2021/09/28 03:53:23;;;;;;;9.32;4.30;;;;;;;;;;7327095;19;154287;-13
2021/09/28 03:55:51;;;;;;;11.07;4.35;;;;;;;;;;7328697;19;161876;-13
2021/09/28 03:58:19;;;;;;;8.32;4.80;;;;;;;;;;7328812;19;162265;-13
2021/09/28 04:00:46;;;;;;;6.78;4.07;;;;;;;;;;7328723;19;154001;-14
2021/09/28 04:03:14;;;;;;;7.35;4.07;;;;;;;;;;7327306;19;153543;-14
2021/09/28 04:05:42;;;;;;;8.70;4.35;;;;;;;;;;7327297;19;162015;-14
2021/09/28 04:08:10;;;;;;;13.90;4.75;;;;;;;;;;7328506;19;162434;-12
2021/09/28 04:10:38;;;;;;;6.28;3.80;;;;;;;;;;7328609;19;154263;-14
2021/09/28 04:13:10;;;;;;;7.38;4.25;;;;;;;;;;7328620;19;153742;-15
2021/09/28 04:15:40;;;;;;;6.47;4.03;;;;;;;;;;7328104;19;161819;-13
2021/09/28 04:18:10;;;;;;;7.10;4.30;;;;;;;;;;7328098;19;162287;-14
2021/09/28 04:20:40;;;;;;;8.05;4.13;;;;;;;;;;7328241;19;154298;-16
2021/09/28 04:23:11;;;;;;;7.63;4.32;;;;;;;;;;7326859;19;153528;-14
2021/09/28 04:25:40;;;;;;;8.40;3.97;;;;;;;;;;7327154;19;162086;-14
2021/09/28 04:28:11;;;;;;;6.45;3.90;;;;;;;;;;7327999;19;162316;-14
2021/09/28 04:30:39;;;;;;;7.15;3.70;;;;;;;;;;7333574;19;154230;-15
2021/09/28 04:33:07;;;;;;;6.45;3.55;;;;;;;;;;7333424;19;153608;-13
2021/09/28 04:35:35;;;;;;;6.50;3.70;;;;;;;;;;7333904;19;162328;-13
2021/09/28 04:38:03;;;;;;;5.60;3.90;;;;;;;;;;7334221;19;162355;-13
2021/09/28 04:40:31;;;;;;;6.55;4.18;;;;;;;;;;7334359;19;154084;-14
2021/09/28 04:42:59;;;;;;;6.85;3.72;;;;;;;;;;7334411;19;153551;-13
2021/09/28 04:45:27;;;;;;;7.93;4.18;;;;;;;;;;7333979;19;161952;-14
2021/09/28 04:47:55;;;;;;;6.85;3.83;;;;;;;;;;7334106;19;162373;-13
2021/09/28 04:50:22;;;;;;;6.45;3.80;;;;;;;;;;7334006;19;153999;-15
2021/09/28 04:52:50;;;;;;;6.93;4.50;;;;;;;;;;7332786;19;153708;-14
2021/09/28 04:55:18;;;;;;;8.10;3.75;;;;;;;;;;7333777;19;162324;-15
2021/09/28 04:57:46;;;;;;;6.93;3.55;;;;;;;;;;7332697;19;162690;-14
2021/09/28 05:00:14;;;;;;;6.00;3.88;;;;;;;;;;7333888;19;153783;-13
2021/09/28 05:02:43;;;;;;;6.70;3.80;;;;;;;;;;7334058;19;153781;-13
2021/09/28 05:05:11;;;;;;;5.78;3.30;;;;;;;;;;7330020;19;162066;-13
2021/09/28 05:07:39;;;;;;;6.38;3.47;;;;;;;;;;7333633;19;162462;-13
2021/09/28 05:10:10;;;;;;;9.18;4.15;;;;;;;;;;7332683;19;154351;-15
2021/09/28 05:12:38;;;;;;;6.07;3.45;;;;;;;;;;7336412;19;154164;-14
2021/09/28 05:15:06;;;;;;;4.28;3.38;;;;;;;;;;7333305;19;161979;-14
2021/09/28 05:17:35;;;;;;;6.47;3.72;;;;;;;;;;7333174;19;162446;-13
2021/09/28 05:20:05;;;;;;;5.97;3.17;;;;;;;;;;7333589;19;154277;-14
2021/09/28 05:22:33;;;;;;;8.35;3.88;;;;;;;;;;7333811;19;153527;-14
2021/09/28 05:25:01;;;;;;;7.15;3.47;;;;;;;;;;7331298;19;161862;-13
2021/09/28 05:27:29;;;;;;;7.88;3.50;;;;;;;;;;7333193;19;162299;-13
2021/09/28 05:29:56;;;;;;;6.50;3.90;;;;;;;;;;7333256;19;154166;-13
2021/09/28 05:32:24;;;;;;;6.63;3.30;;;;;;;;;;7331628;19;153569;-13
2021/09/28 05:34:52;;;;;;;6.25;3.60;;;;;;;;;;7331744;19;161898;-15
2021/09/28 05:37:21;;;;;;;5.90;3.55;;;;;;;;;;7332759;19;162289;-16
2021/09/28 05:39:49;;;;;;;9.80;3.65;;;;;;;;;;7332829;19;154026;-13
2021/09/28 05:42:16;;;;;;;8.07;3.92;;;;;;;;;;7333485;19;153572;-13
2021/09/28 05:44:44;;;;;;;6.28;3.65;;;;;;;;;;7330597;19;162115;-15
2021/09/28 05:47:13;;;;;;;6.10;3.42;;;;;;;;;;7332541;19;162608;-15
2021/09/28 05:49:41;;;;;;;4.82;3.67;;;;;;;;;;7332437;19;155629;-15
2021/09/28 05:52:12;;;;;;;5.82;3.60;;;;;;;;;;7330343;19;153572;-15
2021/09/28 05:54:47;;;;;;;8.50;3.75;;;;;;;;;;7334745;19;161834;-13
2021/09/28 05:57:16;;;;;;;6.63;3.58;;;;;;;;;;7331825;19;162280;-13
2021/09/28 05:59:44;;;;;;;6.20;3.33;;;;;;;;;;7332377;19;154252;-17
2021/09/28 06:02:17;;;;;;;4.90;3.25;;;;;;;;;;7334843;19;153645;-15
2021/09/28 06:04:46;;;;;;;9.13;4.32;;;;;;;;;;7333573;19;161848;-15
2021/09/28 06:07:18;;;;;;;9.95;5.25;;;;;;;;;;7335381;19;162281;-13
2021/09/28 06:09:48;;;;;;;12.55;5.45;;;;;;;;;;7332245;19;154168;-13
2021/09/28 06:12:16;;;;;;;13.27;5.72;;;;;;;;;;7332297;19;153330;-16
2021/09/28 06:14:45;;;;;;;13.35;5.65;;;;;;;;;;7331423;19;161824;-16
2021/09/28 06:17:14;;;;;;;10.82;5.05;;;;;;;;;;7332101;19;162183;-13
2021/09/28 06:19:42;;;;;;;11.57;5.40;;;;;;;;;;7331830;19;154133;-15
2021/09/28 06:22:10;;;;;;;10.95;5.53;;;;;;;;;;7334115;19;153738;-15
2021/09/28 06:24:38;;;;;;;12.30;5.32;;;;;;;;;;7333563;19;162243;-15
2021/09/28 06:27:07;;;;;;;11.50;6.00;;;;;;;;;;7334854;19;162302;-15
2021/09/28 06:29:35;;;;;;;11.40;5.20;;;;;;;;;;7332119;19;154567;-15
2021/09/28 06:32:04;;;;;;;13.52;5.43;;;;;;;;;;7331245;19;153480;-16
2021/09/28 06:34:32;;;;;;;10.23;5.70;;;;;;;;;;7331180;19;162403;-13
2021/09/28 06:37:00;;;;;;;13.88;6.72;;;;;;;;;;7330541;19;162456;-16
2021/09/28 06:39:27;;;;;;;18.98;7.15;;;;;;;;;;7331417;19;153998;-16
2021/09/28 06:41:55;;;;;;;11.45;6.22;;;;;;;;;;7330996;19;153795;-14
2021/09/28 06:44:23;;;;;;;12.93;5.32;;;;;;;;;;7329004;19;162103;-13
2021/09/28 06:46:51;;;;;;;10.70;5.93;;;;;;;;;;7330043;19;162276;-16
2021/09/28 06:49:19;;;;;;;10.65;6.25;;;;;;;;;;7331386;19;153968;-15
2021/09/28 06:51:47;;;;;;;10.23;5.82;;;;;;;;;;7329125;19;153812;-15
2021/09/28 06:54:15;;;;;;;15.27;6.20;;;;;;;;;;7330795;19;161886;-14
2021/09/28 06:56:43;;;;;;;16.85;6.95;;;;;;;;;;7329328;19;162384;-15
2021/09/28 06:59:11;;;;;;;12.35;7.03;;;;;;;;;;7330100;19;153775;-16
2021/09/28 07:01:40;;;;;;;10.45;6.22;;;;;;;;;;7329839;19;153767;-17
2021/09/28 07:04:08;;;;;;;11.75;6.35;;;;;;;;;;7330107;19;162206;-15
2021/09/28 07:06:36;;;;;;;9.98;5.70;;;;;;;;;;7330463;19;162247;-17
2021/09/28 07:09:03;;;;;;;11.75;5.55;;;;;;;;;;7329781;19;153974;-14
2021/09/28 07:11:31;;;;;;;10.52;5.70;;;;;;;;;;7330725;19;153783;-13
2021/09/28 07:13:59;;;;;;;9.15;5.53;;;;;;;;;;7329241;19;161800;-14
2021/09/28 07:16:27;;;;;;;11.82;5.57;;;;;;;;;;7330095;19;162441;-14
2021/09/28 07:18:55;;;;;;;15.93;5.57;;;;;;;;;;7330494;19;154002;-14
2021/09/28 07:21:23;;;;;;;11.60;6.03;;;;;;;;;;7330448;19;153745;-15
2021/09/28 07:23:51;;;;;;;13.05;6.38;;;;;;;;;;7330130;19;161891;-13
2021/09/28 07:26:20;;;;;;;15.05;6.78;;;;;;;;;;7327268;19;162668;-15
2021/09/28 07:28:49;;;;;;;12.07;6.35;;;;;;;;;;7330386;19;154015;-15
2021/09/28 07:31:17;;;;;;;16.05;8.07;;;;;;;;;;7329989;19;153788;-15
2021/09/28 07:33:45;;;;;;;13.93;6.93;;;;;;;;;;7328461;19;162039;-15
2021/09/28 07:36:13;;;;;;;13.30;7.35;;;;;;;;;;7328493;19;162523;-15
2021/09/28 07:38:43;;;;;;;14.52;6.95;;;;;;;;;;7329887;19;153999;-14
2021/09/28 07:41:11;;;;;;;12.02;6.68;;;;;;;;;;7329611;19;153560;-14
2021/09/28 07:43:39;;;;;;;17.13;7.28;;;;;;;;;;7329370;19;161930;-15
2021/09/28 07:46:07;;;;;;;13.13;7.28;;;;;;;;;;7327032;19;162513;-14
2021/09/28 07:48:37;;;;;;;15.68;7.90;;;;;;;;;;7329823;19;153963;-15
2021/09/28 07:51:05;;;;;;;12.45;6.13;;;;;;;;;;7329384;19;153596;-14
2021/09/28 07:53:33;;;;;;;18.52;6.80;;;;;;;;;;7325409;19;162069;-14
2021/09/28 07:56:02;;;;;;;16.88;6.75;;;;;;;;;;7327658;19;162681;-21
2021/09/28 07:58:31;;;;;;;15.52;6.47;;;;;;;;;;7329361;19;154366;-15
2021/09/28 08:00:59;;;;;;;14.65;6.65;;;;;;;;;;7329191;19;154278;-14
2021/09/28 08:03:27;;;;;;;21.55;6.85;;;;;;;;;;7329788;19;161757;-15
2021/09/28 08:05:54;;;;;;;21.52;6.63;;;;;;;;;;7334133;19;162323;-14
2021/09/28 08:08:22;;;;;;;21.83;7.15;;;;;;;;;;7335828;19;153979;-14
2021/09/28 08:10:50;;;;;;;21.40;6.85;;;;;;;;;;7336153;19;153608;-13
2021/09/28 08:13:18;;;;;;;15.50;5.75;;;;;;;;;;7335041;19;161879;-13
2021/09/28 08:15:46;;;;;;;16.20;6.13;;;;;;;;;;7335101;19;162478;-16
2021/09/28 08:18:14;;;;;;;17.90;7.18;;;;;;;;;;7335333;19;154039;-16
2021/09/28 08:20:43;;;;;;;21.70;7.20;;;;;;;;;;7335374;19;153755;-14
2021/09/28 08:23:12;;;;;;;22.85;6.68;;;;;;;;;;7334878;19;162109;-15
2021/09/28 08:25:59;;;;;;;15.60;6.70;;;;;;;;;;7333746;19;162371;-14
2021/09/28 08:31:14;;;;;;;12.68;6.97;;;;;;;;;;7334057;19;153614;-15
2021/09/28 08:33:42;;;;;;;17.75;6.35;;;;;;;;;;7334944;19;161792;-13
2021/09/28 08:36:10;;;;;;;13.75;5.72;;;;;;;;;;7333665;19;162385;-14
2021/09/28 08:38:38;;;;;;;17.10;6.03;;;;;;;;;;7335022;19;154106;-15
2021/09/28 08:41:11;;;;;;;19.02;6.20;;;;;;;;;;7335162;19;153587;-15
2021/09/28 08:43:39;;;;;;;20.50;5.60;;;;;;;;;;7334759;19;161960;-13
2021/09/28 08:46:07;;;;;;;22.42;6.53;;;;;;;;;;7332526;19;162275;-14
2021/09/28 08:48:35;;;;;;;19.02;6.28;;;;;;;;;;7333719;19;153996;-15
2021/09/28 08:51:03;;;;;;;13.43;5.82;;;;;;;;;;7334798;19;153772;-16
2021/09/28 08:53:30;;;;;;;14.93;5.10;;;;;;;;;;7332448;19;162043;-15
2021/09/28 08:55:58;;;;;;;18.40;5.70;;;;;;;;;;7334244;19;162439;-15
2021/09/28 08:58:28;;;;;;;18.88;6.03;;;;;;;;;;7333379;19;153798;-14
2021/09/28 09:01:04;;;;;;;19.75;6.13;;;;;;;;;;7332840;19;154112;-14
2021/09/28 09:03:34;;;;;;;17.98;5.65;;;;;;;;;;7335909;19;161952;-14
2021/09/28 09:06:04;;;;;;;20.13;5.45;;;;;;;;;;7332005;19;162404;-15
2021/09/28 09:08:35;;;;;;;20.50;5.53;;;;;;;;;;7334024;19;154148;-13
2021/09/28 09:11:06;;;;;;;18.75;5.43;;;;;;;;;;7333539;19;153586;-13
2021/09/28 09:13:41;;;;;;;12.15;5.15;;;;;;;;;;7333248;19;161988;-15
2021/09/28 09:16:13;;;;;;;10.43;4.40;;;;;;;;;;7332287;19;162325;-15
2021/09/28 09:18:43;;;;;;;25.67;6.63;;;;;;;;;;7333516;19;154048;-13
2021/09/28 09:21:14;;;;;;;20.02;5.25;;;;;;;;;;7333485;19;153631;-13
2021/09/28 09:23:44;;;;;;;20.77;4.75;;;;;;;;;;7332746;19;161782;-14
2021/09/28 09:26:27;;;;;;;15.57;5.53;;;;;;;;;;7331343;19;162279;-14
2021/09/28 09:28:57;;;;;;;15.73;4.90;;;;;;;;;;7333327;19;153766;-15
2021/09/28 09:31:37;;;;;;;16.60;5.65;;;;;;;;;;7332886;19;153742;-14
2021/09/28 09:34:19;;;;;;;12.02;4.38;;;;;;;;;;7332293;19;162007;-16
2021/09/28 09:36:55;;;;;;;14.20;4.80;;;;;;;;;;7331168;19;162516;-14
2021/09/28 09:39:25;;;;;;;14.48;5.13;;;;;;;;;;7332880;19;154359;-14
2021/09/28 09:42:05;;;;;;;13.60;3.92;;;;;;;;;;7332478;19;153355;-14
2021/09/28 09:44:35;;;;;;;11.60;4.47;;;;;;;;;;7332077;19;161878;-14
2021/09/28 09:47:04;;;;;;;12.38;4.63;;;;;;;;;;7328542;19;162468;-14
2021/09/28 09:49:34;;;;;;;13.82;4.25;;;;;;;;;;7331139;19;154048;-15
2021/09/28 09:52:09;;;;;;;14.20;4.80;;;;;;;;;;7331779;19;153753;-13
2021/09/28 09:54:44;;;;;;;11.15;4.63;;;;;;;;;;7332237;19;161850;-16
2021/09/28 09:57:13;;;;;;;12.88;4.32;;;;;;;;;;7331920;19;162095;-14
2021/09/28 09:59:42;;;;;;;15.50;4.82;;;;;;;;;;7331529;19;154423;-14
2021/09/28 10:02:10;;;;;;;14.65;5.35;;;;;;;;;;7331174;19;153631;-15
2021/09/28 10:04:38;;;;;;;14.57;5.15;;;;;;;;;;7332180;19;161920;-15
2021/09/28 10:07:06;;;;;;;10.75;4.72;;;;;;;;;;7329694;19;162290;-16
2021/09/28 10:09:41;;;;;;;11.38;4.70;;;;;;;;;;7331734;19;153979;-15
2021/09/28 10:12:10;;;;;;;16.08;5.28;;;;;;;;;;7331826;19;153581;-15
2021/09/28 10:14:41;;;;;;;13.80;4.60;;;;;;;;;;7331117;19;162182;-14
2021/09/28 10:17:15;;;;;;;19.23;4.50;;;;;;;;;;7330539;19;162311;-13
2021/09/28 10:19:45;;;;;;;13.95;4.88;;;;;;;;;;7332751;19;154140;-13
2021/09/28 10:22:42;;;;;;;14.73;4.80;;;;;;;;;;7330679;19;153670;-12
2021/09/28 10:25:22;;;;;;;16.08;5.22;;;;;;;;;;7330562;19;161910;-13
2021/09/28 10:27:53;;;;;;;14.18;5.00;;;;;;;;;;7329344;19;162288;-14
2021/09/28 10:30:33;;;;;;;15.65;5.30;;;;;;;;;;7331748;19;154033;-16
2021/09/28 10:33:03;;;;;;;9.15;4.40;;;;;;;;;;7331696;19;153558;-12
2021/09/28 10:35:33;;;;;;;14.18;4.72;;;;;;;;;;7331009;19;161857;-14
2021/09/28 10:38:07;;;;;;;14.85;4.75;;;;;;;;;;7331104;19;162514;-13
2021/09/28 10:40:36;;;;;;;17.40;4.32;;;;;;;;;;7331124;19;154291;-13
2021/09/28 10:43:09;;;;;;;8.30;4.40;;;;;;;;;;7331122;19;153631;-13
2021/09/28 10:45:39;;;;;;;10.48;4.30;;;;;;;;;;7330536;19;161843;-13
2021/09/28 10:48:33;;;;;;;11.95;4.22;;;;;;;;;;7331042;19;162130;-15
2021/09/28 10:51:20;;;;;;;12.55;4.55;;;;;;;;;;7329103;19;153992;-14
2021/09/28 10:53:53;;;;;;;12.88;4.13;;;;;;;;;;7326935;19;153415;-13
2021/09/28 10:56:21;;;;;;;10.93;4.18;;;;;;;;;;7330581;19;161868;-13
2021/09/28 10:58:57;;;;;;;12.70;4.35;;;;;;;;;;7330434;19;162146;-15
2021/09/28 11:01:27;;;;;;;12.00;4.38;;;;;;;;;;7329300;19;153959;-15
2021/09/28 11:03:56;;;;;;;12.88;4.70;;;;;;;;;;7330775;19;153591;-14
2021/09/28 11:06:51;;;;;;;14.85;4.40;;;;;;;;;;7328891;19;161492;-15
2021/09/28 11:09:26;;;;;;;13.93;4.10;;;;;;;;;;7329169;19;162469;-13
2021/09/28 11:11:56;;;;;;;16.67;4.28;;;;;;;;;;7330094;19;153760;-15
2021/09/28 11:14:25;;;;;;;16.00;4.35;;;;;;;;;;7330073;19;153634;-13
2021/09/28 11:17:00;;;;;;;11.75;4.07;;;;;;;;;;7329741;19;162150;-13
2021/09/28 11:19:33;;;;;;;12.57;4.05;;;;;;;;;;7329636;19;162420;-13
2021/09/28 11:22:04;;;;;;;13.82;4.85;;;;;;;;;;7329947;19;153994;-15
2021/09/28 11:24:32;;;;;;;10.25;4.32;;;;;;;;;;7329446;19;153665;-12
2021/09/28 11:27:10;;;;;;;9.45;4.57;;;;;;;;;;7326408;19;161669;-15
2021/09/28 11:29:40;;;;;;;10.65;4.28;;;;;;;;;;7332813;19;162614;-15
2021/09/28 11:32:09;;;;;;;13.90;4.65;;;;;;;;;;7328521;19;153759;-12
2021/09/28 11:34:39;;;;;;;11.30;3.58;;;;;;;;;;7329425;19;153538;-14
2021/09/28 11:37:18;;;;;;;9.05;3.67;;;;;;;;;;7328781;19;161834;-14
2021/09/28 11:39:48;;;;;;;11.15;3.53;;;;;;;;;;7329372;19;162331;-14
2021/09/28 11:42:16;;;;;;;11.30;4.47;;;;;;;;;;7329405;19;154285;-13
2021/09/28 11:44:51;;;;;;;10.27;4.55;;;;;;;;;;7329303;19;153685;-16
2021/09/28 11:47:25;;;;;;;12.93;4.07;;;;;;;;;;7326551;19;161703;-15
2021/09/28 11:50:00;;;;;;;7.95;4.25;;;;;;;;;;7328804;19;162697;-13
2021/09/28 11:52:29;;;;;;;13.65;4.90;;;;;;;;;;7327786;19;153978;-14
2021/09/28 11:54:57;;;;;;;12.95;4.95;;;;;;;;;;7328677;19;153599;-15
2021/09/28 11:57:26;;;;;;;11.18;4.63;;;;;;;;;;7329738;19;161828;-14
2021/09/28 11:59:54;;;;;;;9.98;3.88;;;;;;;;;;7328170;19;162476;-15
2021/09/28 12:02:24;;;;;;;9.57;3.90;;;;;;;;;;7327512;19;154011;-15
2021/09/28 12:10:18;;;;;;;10.45;4.13;;;;;;;;;;7327921;19;162490;-12
2021/09/28 12:12:46;;;;;;;8.02;4.10;;;;;;;;;;7326889;19;154118;-13
2021/09/28 12:15:14;;;;;;;14.15;4.32;;;;;;;;;;7328056;19;153537;-12
2021/09/28 12:17:46;;;;;;;9.70;4.13;;;;;;;;;;7327840;19;161946;-15
2021/09/28 12:20:17;;;;;;;16.65;4.18;;;;;;;;;;7327609;19;163039;-15
2021/09/28 12:22:51;;;;;;;11.80;4.10;;;;;;;;;;7325669;19;153857;-16
2021/09/28 12:25:25;;;;;;;14.50;4.50;;;;;;;;;;7329542;19;153598;-15
2021/09/28 12:28:00;;;;;;;17.48;5.75;;;;;;;;;;7325609;19;162293;-15
2021/09/28 12:30:34;;;;;;;12.07;5.10;;;;;;;;;;7327712;19;162458;-16
2021/09/28 12:33:05;;;;;;;13.82;4.80;;;;;;;;;;7327823;19;154092;-15
2021/09/28 12:35:35;;;;;;;9.85;4.32;;;;;;;;;;7327181;19;153420;-13
2021/09/28 12:38:06;;;;;;;12.80;4.10;;;;;;;;;;7327167;19;161923;-13
2021/09/28 12:40:42;;;;;;;14.35;3.60;;;;;;;;;;7326621;19;162462;-13
2021/09/28 12:43:14;;;;;;;13.75;4.72;;;;;;;;;;7327000;19;153998;-14
2021/09/28 12:45:51;;;;;;;11.77;4.50;;;;;;;;;;7326954;19;153598;-14
2021/09/28 12:48:40;;;;;;;9.43;3.75;;;;;;;;;;7324441;19;161761;-15
2021/09/28 12:51:15;;;;;;;13.32;3.88;;;;;;;;;;7332595;19;162549;-13
2021/09/28 12:53:43;;;;;;;12.88;4.85;;;;;;;;;;7332034;19;154169;-13
2021/09/28 12:56:11;;;;;;;14.63;4.22;;;;;;;;;;7333865;19;153560;-14
2021/09/28 12:58:39;;;;;;;12.63;4.18;;;;;;;;;;7332450;19;161990;-16
2021/09/28 13:01:07;;;;;;;12.38;4.93;;;;;;;;;;7333689;19;162391;-15
2021/09/28 13:03:35;;;;;;;10.30;4.20;;;;;;;;;;7333893;19;154209;-13
2021/09/28 13:06:09;;;;;;;11.32;4.05;;;;;;;;;;7333219;19;153832;-14
2021/09/28 13:08:38;;;;;;;9.38;3.92;;;;;;;;;;7332255;19;161750;-15
2021/09/28 13:11:09;;;;;;;11.63;3.92;;;;;;;;;;7333261;19;162278;-16
2021/09/28 13:13:37;;;;;;;10.98;4.35;;;;;;;;;;7333624;19;154032;-13
2021/09/28 13:16:07;;;;;;;6.07;3.30;;;;;;;;;;7333793;19;153629;-15
2021/09/28 13:18:37;;;;;;;8.95;4.20;;;;;;;;;;7332909;19;161941;-14
2021/09/28 13:21:05;;;;;;;15.02;3.80;;;;;;;;;;7332642;19;162499;-15
2021/09/28 13:23:33;;;;;;;10.20;3.60;;;;;;;;;;7333325;19;154162;-14
2021/09/28 13:26:01;;;;;;;15.75;4.07;;;;;;;;;;7332281;19;153873;-14
2021/09/28 13:28:29;;;;;;;12.95;3.72;;;;;;;;;;7330440;19;162332;-15
2021/09/28 13:30:57;;;;;;;14.88;4.38;;;;;;;;;;7331543;19;162685;-13
2021/09/28 13:33:25;;;;;;;15.50;4.53;;;;;;;;;;7333536;19;154132;-14
2021/09/28 13:35:53;;;;;;;11.05;3.95;;;;;;;;;;7332243;19;153818;-14
2021/09/28 13:38:21;;;;;;;10.32;3.35;;;;;;;;;;7332965;19;162121;-15
2021/09/28 13:40:49;;;;;;;14.57;3.58;;;;;;;;;;7332901;19;162395;-15
2021/09/28 13:43:17;;;;;;;13.63;3.55;;;;;;;;;;7333233;19;154127;-16
2021/09/28 13:45:45;;;;;;;15.05;4.00;;;;;;;;;;7333144;19;153594;-15
2021/09/28 13:48:13;;;;;;;13.18;3.42;;;;;;;;;;7329635;19;162289;-15
2021/09/28 13:50:41;;;;;;;13.02;3.70;;;;;;;;;;7331649;19;162453;-14
2021/09/28 13:53:09;;;;;;;11.00;3.28;;;;;;;;;;7331312;19;154042;-15
2021/09/28 13:55:37;;;;;;;10.18;3.30;;;;;;;;;;7331506;19;153553;-15
2021/09/28 13:58:05;;;;;;;7.55;3.25;;;;;;;;;;7332543;19;161981;-17
2021/09/28 14:00:32;;;;;;;12.15;3.78;;;;;;;;;;7332380;19;162439;-16
2021/09/28 14:03:00;;;;;;;10.50;3.80;;;;;;;;;;7332727;19;153991;-16
2021/09/28 14:05:28;;;;;;;12.40;3.67;;;;;;;;;;7332547;19;153692;-15
2021/09/28 14:07:57;;;;;;;11.90;3.55;;;;;;;;;;7330561;19;162176;-15
2021/09/28 14:10:26;;;;;;;11.70;3.70;;;;;;;;;;7330941;19;162794;-14
2021/09/28 14:12:54;;;;;;;10.05;3.65;;;;;;;;;;7332431;19;154005;-17
2021/09/28 14:15:22;;;;;;;10.35;3.10;;;;;;;;;;7332032;19;153795;-16
2021/09/28 14:17:50;;;;;;;14.32;3.45;;;;;;;;;;7330797;19;162020;-15
2021/09/28 14:20:18;;;;;;;7.57;3.00;;;;;;;;;;7330627;19;162330;-14
2021/09/28 14:22:46;;;;;;;12.63;3.15;;;;;;;;;;7331888;19;153977;-15
2021/09/28 14:25:13;;;;;;;10.73;2.50;;;;;;;;;;7331984;19;153840;-14
2021/09/28 14:27:41;;;;;;;9.23;3.05;;;;;;;;;;7330695;19;161825;-14
2021/09/28 14:30:10;;;;;;;6.85;2.72;;;;;;;;;;7331282;19;162336;-16
2021/09/28 14:32:37;;;;;;;9.25;3.38;;;;;;;;;;7331929;19;154151;-16
2021/09/28 14:35:06;;;;;;;10.05;3.22;;;;;;;;;;7331673;19;153513;-16
2021/09/28 14:37:34;;;;;;;10.30;3.22;;;;;;;;;;7331422;19;161987;-16
2021/09/28 14:40:03;;;;;;;8.77;3.33;;;;;;;;;;7331025;19;162448;-14
2021/09/28 14:42:33;;;;;;;13.13;3.55;;;;;;;;;;7331365;19;154091;-15